Nearby METAR Reports

(scroll for additional cities)

 

KPSP - Palm Springs, California, USA
Distance from station: WNW 7mi, 11km
Updated: Mon, 21-Oct-2019 12:53pm PDT
Clear
Clear
 Wind from SSW
Wind: SSW 6 mph , 9 km/h
Temperature: 91°F , 33°C
Dew Point: 27°F , -3°C
Humidity: 10%
Barometer: 30.05 inHg , 1017.6 hPa
Clouds: Clear
Visibility: 10 miles , 16 km
2019/10/21 19:53 KPSP 211953Z 21005KT 10SM CLR 33/M03 A3005 RMK AO2 SLP172 T03281033
KTRM - Thermal/Palm Spg, California, USA
Distance from station: SE 16mi, 26km
Updated: Mon, 21-Oct-2019 12:52pm PDT
Clear
Clear
 Wind from varies
Wind: varies 3 mph , 6 km/h
Temperature: 91°F , 33°C
Dew Point: 28°F , -2°C
Humidity: 10%
Barometer: 30.00 inHg , 1015.9 hPa
Clouds: Clear
Visibility: 10 miles , 16 km
2019/10/21 19:52 KTRM 211952Z AUTO VRB03KT 10SM CLR 33/M02 A3000 RMK AO2 SLPNO T03281022
 
KNXP - Twentynine Palms, California, USA
Distance from station: NNE 37mi, 60km
Updated: Mon, 21-Oct-2019 12:56pm PDT
Clear
Clear
 Wind from N
Wind: N 12 mph , 19 km/h
Temperature: 81°F , 27°C
Dew Point: 27°F , -3°C
Humidity: 14%
Barometer: 30.20 inHg , 1022.7 hPa
Clouds: Clear
Visibility: 10 miles , 16 km
2019/10/21 19:56 KNXP 211956Z 36010KT 10SM CLR 27/M03 A3020 RMK AO2 SLP200 T02671033 $
KL35 - Big Bear City, California, USA
Distance from station: NW 43mi, 69km
Updated: Mon, 21-Oct-2019 12:55pm PDT
Clear
Clear
 Wind from NE
Wind: NE 8 mph , 13 km/h
Temperature: 61°F , 16°C
Dew Point: 23°F , -5°C
Humidity: 23%
Barometer: 30.34 inHg , 1027.4 hPa
Clouds: Clear
Visibility: 10 miles , 16 km
2019/10/21 19:55 KL35 211955Z AUTO 05007KT 10SM CLR 16/M05 A3034 RMK AO2
 
KF70 - Murrieta/Temecula, California, USA
Distance from station: WSW 45mi, 73km
Updated: Mon, 21-Oct-2019 12:55pm PDT
Clear
Clear
 Wind from NW
Wind: NW 6 mph , 9 km/h
Temperature: 88°F , 31°C
Dew Point: 28°F , -2°C
Humidity: 12%
Barometer: 30.03 inHg , 1016.9 hPa
Clouds: Clear
Visibility: 10 miles , 16 km
2019/10/21 19:55 KF70 211955Z AUTO 31005KT 10SM CLR 31/M02 A3003 RMK AO1
KRIV - Riverside/March, California, USA
Distance from station: W 51mi, 82km
Updated: Mon, 21-Oct-2019 11:58am PDT
Clear
Clear
 Wind from NNW
Wind: NNW 7 mph , 11 km/h
Temperature: 86°F , 30°C
Dew Point: 25°F , -4°C
Humidity: 11%
Barometer: 30.06 inHg , 1017.9 hPa
Clouds: Clear
Visibility: 10 miles , 16 km
2019/10/21 18:58 KRIV 211858Z AUTO 34006KT 10SM CLR 30/M04 A3006 RMK AO2 SLP167 T02951041
 
KSBD - San Bernardino, California, USA
Distance from station: WNW 54mi, 86km
Updated: Mon, 21-Oct-2019 12:50pm PDT
Clear
Clear
 Wind from calm
Wind: Calm
Temperature: 90°F , 32°C
Dew Point: 27°F , -3°C
Humidity: 10%
Barometer: 30.03 inHg , 1016.9 hPa
Clouds: Clear
Visibility: 10 miles , 16 km
2019/10/21 19:50 KSBD 211950Z 00000KT 10SM SKC 32/M03 A3003
KRNM - Ramona, California, USA
Distance from station: SSW 60mi, 96km
Updated: Mon, 21-Oct-2019 12:53pm PDT
Clear
Clear
 Wind from SSE
Wind: SSE 8 mph , 13 km/h
Temperature: 91°F , 33°C
Dew Point: 30°F , -1°C
Humidity: 11%
Barometer: 30.02 inHg , 1016.6 hPa
Clouds: Clear
Visibility: 10 miles , 16 km
2019/10/21 19:53 KRNM 211953Z 15007KT 110V200 10SM CLR 33/M01 A3002 RMK AO2 SLP150 T03331011
 
KRAL - Riverside, California, USA
Distance from station: W 62mi, 100km
Updated: Mon, 21-Oct-2019 12:53pm PDT
Clear
Clear
 
Temperature: 91°F , 33°C
Dew Point: 30°F , -1°C
Humidity: 11%
Barometer: 30.01 inHg , 1016.3 hPa
Clouds: Clear
Visibility: 10 miles , 16 km
2019/10/21 19:53 KRAL 211953Z 10SM CLR 33/M01 A3001 RMK AO2 SLP146 T03331006
KOKB - Oceanside, California, USA
Distance from station: SW 68mi, 109km
Updated: Mon, 21-Oct-2019 12:52pm PDT
Clear
Clear
 Wind from W
Wind: W 12 mph , 19 km/h
Temperature: 88°F , 31°C
Dew Point: 48°F , 9°C
Humidity: 25%
Barometer: 29.96 inHg , 1014.6 hPa
Clouds: Clear
Visibility: 10 miles , 16 km
2019/10/21 19:52 KOKB 211952Z AUTO 26010KT 10SM CLR 31/09 A2996 RMK AO2 SLP146 T03110094
 
KONT - Ontario, California, USA
Distance from station: WNW 71mi, 114km
Updated: Mon, 21-Oct-2019 12:53pm PDT
Few Clouds
Few Clouds
 Wind from W
Wind: W 8 mph , 13 km/h
Temperature: 90°F , 32°C
Dew Point: 30°F , -1°C
Humidity: 12%
Barometer: 30.01 inHg , 1016.3 hPa
Clouds: Few Clouds
Visibility: 10 miles , 16 km
Cloud details: Few Clouds 25000 ft
2019/10/21 19:53 KONT 211953Z 28007KT 10SM FEW250 32/M01 A3001 RMK AO2 SLP147 T03171011
KNJK - El Centro Naf, California, USA
Distance from station: SSE 78mi, 126km
Updated: Mon, 21-Oct-2019 12:56pm PDT
Clear
Clear
 Wind from NNW
Wind: NNW 5 mph , 7 km/h
Temperature: 90°F , 32°C
Dew Point: 16°F , -9°C
Humidity: 6%
Barometer: 30.04 inHg , 1017.3 hPa
Clouds: Clear
Visibility: 10 miles , 16 km
2019/10/21 19:56 KNJK 211956Z 34004KT 10SM CLR 32/M09 A3004 RMK AO2 SLP188 T03171089
 
KSEE - San Diego/Santee, California, USA
Distance from station: SSW 74mi, 120km
Updated: Mon, 21-Oct-2019 12:47pm PDT
Clear
Clear
 Wind from SW
Wind: SW 5 mph , 7 km/h
Temperature: 93°F , 34°C
Dew Point: 28°F , -2°C
Humidity: 10%
Barometer: 29.98 inHg , 1015.2 hPa
Clouds: Clear
Visibility: 10 miles , 16 km
2019/10/21 19:47 KSEE 211947Z 23004KT 10SM SKC 34/M02 A2998
KCNO - Chino, California, USA
Distance from station: W 72mi, 116km
Updated: Mon, 21-Oct-2019 12:53pm PDT
Clear
Clear
 Wind from N
Wind: N 7 mph , 11 km/h
Temperature: 91°F , 33°C
Dew Point: 36°F , 2°C
Humidity: 14%
Barometer: 30.01 inHg , 1016.3 hPa
Clouds: Clear
Visibility: 10 miles , 16 km
2019/10/21 19:53 KCNO 211953Z 01006KT 10SM CLR 33/02 A3001 RMK AO2 SLP156 T03330017 $

Metar display script from Saratoga-Weather.org